Time;durP1;ratioP1;P1;durP2;ratioP2;P2;SDS_P1;SDS_P2;PMS_P1;PMS_P2;Temp;Humidity;BMP_temperature;BMP_pressure;BME280_temperature;BME280_humidity;BME280_pressure;Samples;Min_cycle;Max_cycle;Signal;HPM_P1;HPM_P2
2021/12/26 00:02:14;;;;;;;13.03;10.37;;;-4.80;21.50;;;;;;6310948;28;20257;-60
2021/12/26 00:05:18;;;;;;;12.57;11.30;;;-4.50;22.10;;;;;;6323515;28;20234;-57
2021/12/26 00:08:22;;;;;;;11.67;10.50;;;-4.60;22.50;;;;;;6335132;27;20814;-57
2021/12/26 00:11:25;;;;;;;11.27;10.07;;;-4.50;23.00;;;;;;6334986;28;20250;-57
2021/12/26 00:14:29;;;;;;;17.43;11.67;;;-4.70;23.40;;;;;;6312598;28;20324;-57
2021/12/26 00:17:31;;;;;;;14.60;11.57;;;-4.60;24.10;;;;;;6324338;27;20712;-56
2021/12/26 00:20:34;;;;;;;22.07;14.03;;;-4.60;24.60;;;;;;6339393;27;20374;-56
2021/12/26 00:23:37;;;;;;;19.83;14.63;;;-4.80;25.10;;;;;;6308566;28;20331;-56
2021/12/26 00:26:40;;;;;;;22.23;13.77;;;-4.90;25.20;;;;;;6308456;28;20622;-58
2021/12/26 00:29:44;;;;;;;28.60;18.93;;;-4.90;25.50;;;;;;6308840;28;20716;-56
2021/12/26 00:32:47;;;;;;;28.87;19.33;;;-4.50;26.20;;;;;;6332470;27;20232;-55
2021/12/26 00:35:50;;;;;;;35.07;22.43;;;-4.80;26.10;;;;;;6331949;28;20322;-56
2021/12/26 00:38:53;;;;;;;42.30;28.17;;;-4.60;26.60;;;;;;6308459;28;20329;-57
2021/12/26 00:41:56;;;;;;;35.37;24.87;;;-4.80;27.40;;;;;;6309337;28;20380;-56
2021/12/26 00:45:00;;;;;;;37.10;23.03;;;-4.70;27.30;;;;;;6309319;28;20304;-55
2021/12/26 00:48:03;;;;;;;31.13;23.07;;;-4.80;27.40;;;;;;6334321;27;20243;-49
2021/12/26 00:51:06;;;;;;;33.13;21.67;;;-4.80;27.60;;;;;;6325225;27;20232;-57
2021/12/26 00:54:09;;;;;;;32.50;22.23;;;-4.90;28.50;;;;;;6309703;28;20470;-55
2021/12/26 00:57:12;;;;;;;30.90;22.30;;;-4.80;28.30;;;;;;6309297;28;20441;-57
2021/12/26 01:00:20;;;;;;;29.93;22.47;;;-4.80;28.60;;;;;;6311499;28;20251;-56
2021/12/26 01:03:23;;;;;;;30.77;21.87;;;-5.00;28.70;;;;;;6345529;27;20598;-56
2021/12/26 01:06:27;;;;;;;29.23;20.37;;;-4.80;29.10;;;;;;6332096;28;20236;-57
2021/12/26 01:09:30;;;;;;;25.17;20.80;;;-5.00;29.20;;;;;;6333132;28;20255;-58
2021/12/26 01:12:34;;;;;;;23.83;19.13;;;-5.10;29.20;;;;;;6333595;28;20240;-57
2021/12/26 01:15:38;;;;;;;28.27;19.70;;;-5.00;30.00;;;;;;6334211;28;20803;-55
2021/12/26 01:18:44;;;;;;;23.20;19.17;;;-4.90;29.50;;;;;;6333824;27;20241;-57
2021/12/26 01:21:46;;;;;;;22.30;18.60;;;-5.10;29.60;;;;;;6335079;28;20240;-56
2021/12/26 01:24:55;;;;;;;21.40;17.57;;;-5.10;29.60;;;;;;6334964;28;20619;-55
2021/12/26 01:27:58;;;;;;;21.30;17.07;;;-4.90;29.80;;;;;;6321299;28;20237;-55
2021/12/26 01:31:02;;;;;;;23.90;18.20;;;-4.90;30.00;;;;;;6313985;28;20260;-55
2021/12/26 01:34:07;;;;;;;25.63;18.97;;;-5.20;29.60;;;;;;6321258;28;20349;-56
2021/12/26 01:37:09;;;;;;;24.50;18.43;;;-5.00;29.90;;;;;;6337737;28;20361;-55
2021/12/26 01:40:13;;;;;;;32.53;22.10;;;-5.00;30.10;;;;;;6323557;27;20324;-56
2021/12/26 01:43:18;;;;;;;26.53;20.13;;;-5.10;30.60;;;;;;6313646;28;20318;-56
2021/12/26 01:46:22;;;;;;;25.77;20.07;;;-5.20;31.00;;;;;;6314865;28;20263;-58
2021/12/26 01:49:28;;;;;;;24.27;18.10;;;-5.00;31.00;;;;;;6351958;27;20637;-57
2021/12/26 01:52:31;;;;;;;21.20;16.50;;;-4.90;31.80;;;;;;6363619;27;20659;-55
2021/12/26 01:55:42;;;;;;;24.07;16.87;;;-5.20;31.00;;;;;;6350350;27;20319;-61
2021/12/26 01:58:45;;;;;;;23.93;17.17;;;-5.20;31.20;;;;;;6313833;28;20289;-55
2021/12/26 02:01:49;;;;;;;21.43;16.53;;;-5.30;31.00;;;;;;6312941;28;20316;-57
2021/12/26 02:04:52;;;;;;;22.30;18.13;;;-5.30;31.00;;;;;;6317589;28;20758;-56
2021/12/26 02:07:55;;;;;;;23.47;16.40;;;-5.10;30.90;;;;;;6335952;28;20345;-57
2021/12/26 02:11:00;;;;;;;18.93;15.07;;;-5.20;31.10;;;;;;6337318;27;20259;-56
2021/12/26 02:14:03;;;;;;;18.63;15.63;;;-5.00;31.00;;;;;;6334873;28;20336;-52
2021/12/26 02:17:07;;;;;;;16.87;14.37;;;-5.20;31.00;;;;;;6335572;27;20920;-56
2021/12/26 02:20:19;;;;;;;17.20;14.77;;;-5.40;30.90;;;;;;6346155;27;20289;-56
2021/12/26 02:23:27;;;;;;;19.27;15.73;;;-5.30;31.00;;;;;;6311723;28;20233;-58
2021/12/26 02:29:50;;;;;;;17.97;15.33;;;-5.30;30.80;;;;;;6311894;28;20229;-56
2021/12/26 02:32:58;;;;;;;19.97;14.80;;;-5.40;30.80;;;;;;6330128;27;20708;-56
2021/12/26 02:36:02;;;;;;;20.20;16.43;;;-5.30;30.90;;;;;;6317428;28;20305;-55
2021/12/26 02:39:06;;;;;;;19.87;14.43;;;-5.30;30.60;;;;;;6312721;28;20531;-55
2021/12/26 02:42:09;;;;;;;23.10;15.77;;;-5.40;30.50;;;;;;6312270;28;20323;-54
2021/12/26 02:45:12;;;;;;;20.67;16.43;;;-5.40;30.90;;;;;;6329786;27;20446;-56
2021/12/26 02:48:15;;;;;;;31.83;18.93;;;-5.40;31.00;;;;;;6341557;27;20490;-56
2021/12/26 02:51:19;;;;;;;26.30;18.60;;;-5.40;30.90;;;;;;6359487;27;20246;-55
2021/12/26 02:54:24;;;;;;;21.87;15.93;;;-5.40;31.20;;;;;;6317102;27;20327;-55
2021/12/26 02:57:28;;;;;;;17.00;14.93;;;-5.30;31.50;;;;;;6311563;28;20831;-56
2021/12/26 03:00:35;;;;;;;23.80;16.40;;;-5.40;32.10;;;;;;6312708;28;20287;-55
2021/12/26 03:03:39;;;;;;;22.70;17.27;;;-5.40;31.00;;;;;;6311223;28;20311;-57
2021/12/26 03:06:51;;;;;;;20.47;15.23;;;-5.60;31.10;;;;;;6328122;27;20236;-55
2021/12/26 03:09:59;;;;;;;26.43;16.93;;;-5.40;31.30;;;;;;6329025;28;20284;-56
2021/12/26 03:13:04;;;;;;;21.47;15.57;;;-5.40;31.00;;;;;;6339472;27;20767;-56
2021/12/26 03:16:07;;;;;;;19.90;16.10;;;-5.70;31.10;;;;;;6336294;27;20282;-57
2021/12/26 03:19:10;;;;;;;19.97;15.80;;;-5.70;30.90;;;;;;6341317;27;20242;-57
2021/12/26 03:22:14;;;;;;;19.17;15.50;;;-5.50;30.90;;;;;;6361443;27;20231;-56
2021/12/26 03:25:19;;;;;;;25.10;17.53;;;-5.50;31.80;;;;;;6360748;27;20733;-57
2021/12/26 03:28:22;;;;;;;23.57;17.87;;;-5.50;32.20;;;;;;6344621;27;20366;-55
2021/12/26 03:31:25;;;;;;;24.60;17.33;;;-5.50;32.20;;;;;;6316388;28;20236;-54
2021/12/26 03:34:28;;;;;;;20.53;16.40;;;-5.40;32.90;;;;;;6334600;27;20300;-57
2021/12/26 03:37:33;;;;;;;21.63;17.03;;;-5.40;32.80;;;;;;6310419;28;20312;-54
2021/12/26 03:40:36;;;;;;;20.17;15.93;;;-5.60;32.50;;;;;;6309551;28;20446;-57
2021/12/26 03:43:39;;;;;;;19.97;16.07;;;-5.40;33.00;;;;;;6310306;28;20242;-55
2021/12/26 03:46:41;;;;;;;16.73;15.03;;;-5.40;32.60;;;;;;6315358;28;20312;-55
2021/12/26 03:49:47;;;;;;;24.20;18.67;;;-5.50;33.20;;;;;;6352781;27;20242;-56
2021/12/26 03:52:51;;;;;;;21.90;18.03;;;-5.50;33.10;;;;;;6336784;27;20282;-56
2021/12/26 03:55:54;;;;;;;20.40;17.40;;;-5.40;33.10;;;;;;6310050;28;20233;-56
2021/12/26 03:58:58;;;;;;;22.13;18.37;;;-5.50;33.30;;;;;;6310509;28;20262;-56
2021/12/26 04:02:01;;;;;;;20.90;15.67;;;-5.40;33.90;;;;;;6309899;28;20282;-56
2021/12/26 04:05:04;;;;;;;22.27;17.17;;;-5.30;33.30;;;;;;6324763;28;20614;-57
2021/12/26 04:08:08;;;;;;;25.00;17.47;;;-5.30;33.80;;;;;;6334646;27;20240;-55
2021/12/26 04:11:11;;;;;;;23.00;18.47;;;-5.30;33.60;;;;;;6334865;28;20444;-56
2021/12/26 04:14:15;;;;;;;23.70;18.73;;;-5.40;33.70;;;;;;6333924;27;20294;-56
2021/12/26 04:17:19;;;;;;;24.47;18.87;;;-5.40;33.60;;;;;;6336540;27;20382;-56
2021/12/26 04:20:22;;;;;;;20.47;18.00;;;-5.40;33.20;;;;;;6351269;27;20388;-56
2021/12/26 04:23:26;;;;;;;23.73;18.20;;;-5.70;33.30;;;;;;6340751;27;20515;-56
2021/12/26 04:26:30;;;;;;;21.43;18.23;;;-5.40;33.10;;;;;;6334167;28;20257;-57
2021/12/26 04:29:33;;;;;;;24.30;18.10;;;-5.50;32.90;;;;;;6335258;27;20645;-57
2021/12/26 04:32:35;;;;;;;26.17;19.17;;;-5.60;32.50;;;;;;6314618;28;20373;-56
2021/12/26 04:35:38;;;;;;;23.70;18.00;;;-5.60;33.50;;;;;;6337504;27;20386;-56
2021/12/26 04:38:43;;;;;;;23.33;18.47;;;-5.50;33.40;;;;;;6327168;27;20807;-57
2021/12/26 04:42:11;;;;;;;25.20;18.90;;;-5.90;33.00;;;;;;6326606;27;20808;-56
2021/12/26 04:45:15;;;;;;;28.57;20.57;;;-5.50;33.50;;;;;;6331866;28;20315;-60
2021/12/26 04:48:18;;;;;;;19.80;16.13;;;-5.70;32.90;;;;;;6333410;27;20319;-55
2021/12/26 04:51:21;;;;;;;22.50;16.50;;;-5.70;31.40;;;;;;6327736;28;20228;-56
2021/12/26 04:54:25;;;;;;;17.33;15.07;;;-6.10;31.60;;;;;;6320149;28;20327;-56
2021/12/26 04:57:28;;;;;;;20.23;16.53;;;-6.00;32.10;;;;;;6320319;28;20262;-57
2021/12/26 05:00:32;;;;;;;20.70;16.83;;;-5.90;32.80;;;;;;6329106;28;20272;-55
2021/12/26 05:03:36;;;;;;;23.43;15.63;;;-5.90;32.70;;;;;;6329973;28;20420;-56
2021/12/26 05:06:39;;;;;;;18.43;14.80;;;-6.10;32.90;;;;;;6319485;28;20321;-56
2021/12/26 05:09:45;;;;;;;18.83;15.07;;;-6.10;32.60;;;;;;6318515;28;20235;-56
2021/12/26 05:12:48;;;;;;;20.87;15.03;;;-6.10;32.90;;;;;;6322029;28;20231;-54
2021/12/26 05:15:53;;;;;;;16.00;14.37;;;-6.00;33.20;;;;;;6327249;28;20270;-59
2021/12/26 05:18:57;;;;;;;16.93;14.53;;;-6.30;33.20;;;;;;6326644;27;20231;-57
2021/12/26 05:22:00;;;;;;;19.70;15.47;;;-6.30;33.50;;;;;;6326253;28;20739;-54
2021/12/26 05:25:06;;;;;;;19.90;14.77;;;-6.20;34.10;;;;;;6327699;28;20286;-55
2021/12/26 05:28:09;;;;;;;17.93;14.97;;;-6.00;34.00;;;;;;6322372;28;20591;-56
2021/12/26 05:31:12;;;;;;;17.50;14.03;;;-6.30;33.60;;;;;;6328355;28;20320;-59
2021/12/26 05:34:15;;;;;;;16.03;13.00;;;-6.40;32.90;;;;;;6324002;28;20231;-55
2021/12/26 05:37:18;;;;;;;14.57;13.17;;;-6.10;33.00;;;;;;6325986;28;20240;-57
2021/12/26 05:40:23;;;;;;;16.47;14.00;;;-6.00;32.50;;;;;;6327612;28;20788;-56
2021/12/26 05:43:25;;;;;;;14.97;13.10;;;-6.20;32.40;;;;;;6329746;28;20292;-55
2021/12/26 05:46:28;;;;;;;15.83;12.43;;;-6.10;32.90;;;;;;6329915;28;20315;-54
2021/12/26 05:49:31;;;;;;;15.67;12.57;;;-6.30;32.00;;;;;;6330232;28;20239;-55
2021/12/26 05:52:34;;;;;;;17.07;13.00;;;-6.30;32.90;;;;;;6323384;28;20227;-56
2021/12/26 05:55:38;;;;;;;15.63;12.87;;;-6.50;33.70;;;;;;6316639;28;20298;-55
2021/12/26 05:58:41;;;;;;;15.53;13.77;;;-6.50;33.90;;;;;;6322254;28;20262;-58
2021/12/26 06:01:44;;;;;;;14.97;13.07;;;-6.60;34.00;;;;;;6331380;28;20310;-55
2021/12/26 06:04:47;;;;;;;17.43;12.77;;;-6.40;34.80;;;;;;6324339;28;20721;-56
2021/12/26 06:07:50;;;;;;;15.47;12.20;;;-6.50;33.90;;;;;;6326534;28;20233;-56
2021/12/26 06:10:54;;;;;;;13.83;12.03;;;-6.50;34.00;;;;;;6318194;28;20644;-56
2021/12/26 06:13:56;;;;;;;14.20;12.37;;;-6.40;33.80;;;;;;6328175;28;20335;-56
2021/12/26 06:16:59;;;;;;;14.23;12.03;;;-6.60;34.20;;;;;;6331791;28;20713;-57
2021/12/26 06:20:02;;;;;;;13.17;11.80;;;-6.30;34.90;;;;;;6325459;28;20220;-57
2021/12/26 06:23:05;;;;;;;15.07;11.63;;;-6.20;35.10;;;;;;6329002;27;20362;-56
2021/12/26 06:26:09;;;;;;;16.00;12.77;;;-6.30;34.30;;;;;;6330488;28;20316;-56
2021/12/26 06:29:12;;;;;;;17.23;13.13;;;-6.50;34.30;;;;;;6329525;27;20450;-54
2021/12/26 06:32:15;;;;;;;15.97;12.73;;;-6.40;34.90;;;;;;6331970;27;20236;-57
2021/12/26 06:35:17;;;;;;;18.93;13.47;;;-6.40;34.70;;;;;;6325088;28;20433;-57
2021/12/26 06:38:20;;;;;;;20.00;14.27;;;-6.40;35.10;;;;;;6328086;28;20228;-57
2021/12/26 06:41:26;;;;;;;20.23;14.27;;;-6.60;35.20;;;;;;6334396;28;20212;-56
2021/12/26 06:44:29;;;;;;;16.37;12.40;;;-6.60;35.60;;;;;;6335978;27;20619;-56
2021/12/26 06:47:32;;;;;;;14.43;12.27;;;-6.20;36.00;;;;;;6326856;27;20724;-57
2021/12/26 06:50:36;;;;;;;14.93;13.33;;;-6.40;35.90;;;;;;6328198;27;20266;-57
2021/12/26 06:53:39;;;;;;;15.30;12.43;;;-6.50;35.60;;;;;;6336178;27;20232;-57
2021/12/26 06:56:43;;;;;;;16.97;12.60;;;-6.30;35.90;;;;;;6345582;27;20293;-55
2021/12/26 06:59:46;;;;;;;14.77;11.73;;;-6.40;36.00;;;;;;6341522;27;20235;-57
2021/12/26 07:02:48;;;;;;;14.50;12.23;;;-6.50;35.30;;;;;;6338418;27;20261;-56
2021/12/26 07:05:51;;;;;;;16.40;11.77;;;-6.40;34.70;;;;;;6341859;27;20239;-56
2021/12/26 07:08:54;;;;;;;13.47;11.77;;;-6.40;34.50;;;;;;6341099;27;20288;-56
2021/12/26 07:11:58;;;;;;;13.17;11.30;;;-6.60;32.90;;;;;;6340907;27;20334;-55
2021/12/26 07:15:01;;;;;;;13.37;11.70;;;-6.50;33.50;;;;;;6342061;27;20441;-55
2021/12/26 07:18:04;;;;;;;12.53;11.30;;;-6.40;33.70;;;;;;6344639;27;20240;-57
2021/12/26 07:21:07;;;;;;;13.43;11.37;;;-6.60;33.30;;;;;;6340968;27;20220;-56
2021/12/26 07:24:10;;;;;;;14.23;12.27;;;-6.50;32.50;;;;;;6345030;27;20220;-56
2021/12/26 07:27:15;;;;;;;12.93;11.63;;;-6.40;33.50;;;;;;6350838;27;20253;-54
2021/12/26 07:30:17;;;;;;;13.80;12.23;;;-6.40;33.30;;;;;;6332981;27;20232;-56
2021/12/26 07:33:20;;;;;;;15.63;12.10;;;-6.40;32.10;;;;;;6339667;27;20228;-57
2021/12/26 07:36:23;;;;;;;12.63;10.70;;;-6.10;32.10;;;;;;6328002;27;20692;-57
2021/12/26 07:39:26;;;;;;;12.93;11.70;;;-6.20;32.10;;;;;;6331331;28;20263;-55
2021/12/26 07:42:30;;;;;;;12.37;11.03;;;-6.50;32.30;;;;;;6331327;28;20315;-56
2021/12/26 07:45:33;;;;;;;12.97;11.67;;;-6.10;32.50;;;;;;6324894;28;20256;-57
2021/12/26 07:48:36;;;;;;;14.97;12.53;;;-6.40;31.50;;;;;;6328948;27;20279;-55
2021/12/26 07:51:39;;;;;;;13.37;11.77;;;-6.30;31.70;;;;;;6332941;28;20764;-57
2021/12/26 07:54:42;;;;;;;13.13;11.83;;;-6.50;31.00;;;;;;6331106;28;20236;-55
2021/12/26 07:57:48;;;;;;;14.40;12.03;;;-6.30;31.90;;;;;;6328596;28;20304;-55
2021/12/26 08:00:51;;;;;;;15.67;12.40;;;-6.20;31.00;;;;;;6332318;27;20236;-55
2021/12/26 08:03:54;;;;;;;16.83;12.23;;;-6.40;30.40;;;;;;6330776;27;20229;-55
2021/12/26 08:06:58;;;;;;;14.83;12.87;;;-6.50;30.70;;;;;;6338401;27;20512;-55
2021/12/26 08:10:04;;;;;;;14.07;11.97;;;-6.30;29.90;;;;;;6333634;27;20240;-55
2021/12/26 08:13:08;;;;;;;12.70;11.40;;;-6.00;30.30;;;;;;6329619;27;20238;-56
2021/12/26 08:16:11;;;;;;;14.77;12.90;;;-6.30;30.10;;;;;;6326655;28;20228;-57
2021/12/26 08:19:14;;;;;;;15.00;12.37;;;-5.90;29.40;;;;;;6322891;28;20232;-58
2021/12/26 08:22:17;;;;;;;12.80;11.50;;;-6.00;28.10;;;;;;6333506;27;20238;-55
2021/12/26 08:25:19;;;;;;;12.57;11.03;;;-5.70;27.50;;;;;;6311343;28;20285;-55
2021/12/26 08:28:24;;;;;;;14.27;12.53;;;-5.80;27.60;;;;;;6317825;28;20249;-55
2021/12/26 08:31:28;;;;;;;13.53;11.30;;;-5.60;27.60;;;;;;6333767;27;20770;-57
2021/12/26 08:34:31;;;;;;;12.63;11.33;;;-5.60;27.10;;;;;;6332782;28;20736;-55
2021/12/26 08:37:37;;;;;;;14.10;12.00;;;-5.40;26.90;;;;;;6328458;28;20243;-57
2021/12/26 08:40:39;;;;;;;14.60;11.90;;;-5.30;26.20;;;;;;6326562;28;20315;-55
2021/12/26 08:43:45;;;;;;;14.77;12.67;;;-5.20;25.80;;;;;;6330537;27;20314;-64
2021/12/26 08:46:48;;;;;;;15.80;12.97;;;-5.20;24.00;;;;;;6330495;28;20319;-56
2021/12/26 08:49:50;;;;;;;13.13;11.80;;;-4.90;22.60;;;;;;6334748;28;20776;-56
2021/12/26 08:52:53;;;;;;;16.20;13.23;;;-4.90;21.60;;;;;;6329060;28;20778;-56
2021/12/26 08:55:57;;;;;;;18.60;12.63;;;-4.80;19.60;;;;;;6330548;27;20232;-55
2021/12/26 08:59:01;;;;;;;15.13;12.27;;;-4.40;18.80;;;;;;6332457;27;20281;-55
2021/12/26 09:02:07;;;;;;;13.00;11.70;;;-4.40;17.60;;;;;;6323733;28;20259;-57
2021/12/26 09:05:11;;;;;;;12.33;11.03;;;-4.40;16.60;;;;;;6328289;28;20380;-55
2021/12/26 09:08:14;;;;;;;19.00;13.17;;;-4.10;18.40;;;;;;6335593;27;20716;-55
2021/12/26 09:11:17;;;;;;;16.80;13.13;;;-4.30;14.70;;;;;;6322830;27;20328;-55
2021/12/26 09:14:21;;;;;;;16.23;13.93;;;-4.10;14.40;;;;;;6323146;28;20323;-56
2021/12/26 09:17:23;;;;;;;21.47;15.57;;;-3.90;13.80;;;;;;6327517;28;20336;-59
2021/12/26 09:20:27;;;;;;;21.13;16.00;;;-3.90;11.20;;;;;;6331025;28;20240;-55
2021/12/26 09:23:30;;;;;;;19.33;16.83;;;-3.80;12.90;;;;;;6334057;28;20897;-55
2021/12/26 09:26:33;;;;;;;22.03;16.60;;;-3.80;10.20;;;;;;6322112;27;20318;-51
2021/12/26 09:29:37;;;;;;;21.13;16.37;;;-3.80;9.20;;;;;;6328942;27;20232;-56
2021/12/26 09:32:41;;;;;;;25.10;17.50;;;-3.80;9.80;;;;;;6320802;28;20346;-58
2021/12/26 09:35:43;;;;;;;20.43;16.53;;;-3.70;9.50;;;;;;6318728;28;20504;-57
2021/12/26 09:38:46;;;;;;;21.67;17.90;;;-3.30;4.70;;;;;;6328375;28;20381;-56
2021/12/26 09:41:50;;;;;;;22.60;17.70;;;-3.40;1.50;;;;;;6333214;28;20240;-56
2021/12/26 09:44:58;;;;;;;22.80;18.43;;;-3.40;1.00;;;;;;6333829;28;20320;-56
2021/12/26 09:48:01;;;;;;;23.10;17.93;;;-3.10;1.00;;;;;;6332611;28;20240;-56
2021/12/26 09:51:04;;;;;;;21.67;18.20;;;-3.30;1.00;;;;;;6335385;28;20224;-56
2021/12/26 09:54:08;;;;;;;27.83;18.90;;;-3.00;1.00;;;;;;6334466;28;20717;-56
2021/12/26 09:57:11;;;;;;;24.73;18.73;;;-3.00;1.00;;;;;;6332097;28;20242;-56
2021/12/26 10:00:24;;;;;;;24.83;18.97;;;-3.30;1.00;;;;;;6336393;28;20373;-57
2021/12/26 10:03:33;;;;;;;25.83;18.83;;;-2.80;1.00;;;;;;6332896;27;20316;-57
2021/12/26 10:06:36;;;;;;;22.50;19.10;;;-2.80;1.00;;;;;;6328517;28;20228;-58
2021/12/26 10:09:41;;;;;;;25.80;19.47;;;-2.80;1.00;;;;;;6331484;27;20231;-56
2021/12/26 10:12:43;;;;;;;29.50;18.37;;;-2.70;1.00;;;;;;6328955;28;20232;-57
2021/12/26 10:15:50;;;;;;;19.67;17.57;;;-2.60;1.00;;;;;;6326151;27;20331;-56
2021/12/26 10:18:54;;;;;;;23.73;17.53;;;-2.50;1.00;;;;;;6330460;28;20374;-58
2021/12/26 10:22:00;;;;;;;22.73;17.30;;;-2.50;1.00;;;;;;6334175;27;20318;-58
2021/12/26 10:25:10;;;;;;;19.53;16.20;;;-2.60;1.00;;;;;;6333195;27;20538;-56
2021/12/26 10:28:13;;;;;;;18.53;15.40;;;-2.50;1.00;;;;;;6327963;27;20335;-57
2021/12/26 10:31:17;;;;;;;22.97;16.23;;;-2.40;1.00;;;;;;6330228;27;20230;-57
2021/12/26 10:34:23;;;;;;;18.33;15.23;;;-2.40;1.00;;;;;;6328465;27;20224;-57
2021/12/26 10:37:30;;;;;;;19.90;16.57;;;-2.10;1.00;;;;;;6336385;27;20377;-57
2021/12/26 10:40:33;;;;;;;21.23;15.87;;;-2.10;1.00;;;;;;6333613;27;20708;-56
2021/12/26 10:43:46;;;;;;;16.63;13.90;;;-2.00;1.00;;;;;;6340923;27;20232;-59
2021/12/26 10:46:53;;;;;;;18.07;14.40;;;-2.10;1.00;;;;;;6336224;27;20312;-57
2021/12/26 10:49:58;;;;;;;15.73;14.03;;;-2.00;1.00;;;;;;6332332;27;20608;-57
2021/12/26 10:53:03;;;;;;;16.10;12.47;;;-1.60;1.00;;;;;;6338660;27;20309;-57
2021/12/26 10:56:09;;;;;;;14.73;12.67;;;-1.50;1.00;;;;;;6336424;27;20223;-56
2021/12/26 10:59:19;;;;;;;16.13;13.10;;;-1.70;1.00;;;;;;6334290;27;20780;-58
2021/12/26 11:02:25;;;;;;;14.77;12.40;;;-1.50;1.00;;;;;;6336417;27;20311;-57
2021/12/26 11:05:34;;;;;;;16.87;12.40;;;-1.70;1.00;;;;;;6331444;27;20230;-57
2021/12/26 11:08:41;;;;;;;14.03;11.93;;;-1.60;1.00;;;;;;6336190;27;20261;-58
2021/12/26 11:11:59;;;;;;;14.43;12.37;;;-1.40;1.00;;;;;;6325932;27;20285;-57
2021/12/26 11:15:03;;;;;;;13.97;11.93;;;-1.30;1.00;;;;;;6330111;27;20280;-57
2021/12/26 11:18:09;;;;;;;12.83;11.50;;;-1.30;1.00;;;;;;6334421;27;20769;-59
2021/12/26 11:21:14;;;;;;;12.53;10.90;;;-1.00;1.00;;;;;;6336936;27;20236;-57
2021/12/26 11:24:17;;;;;;;11.70;10.60;;;-1.20;1.00;;;;;;6337656;27;20303;-56
2021/12/26 11:27:21;;;;;;;10.40;9.40;;;-1.00;1.00;;;;;;6312661;27;20715;-58
2021/12/26 11:30:24;;;;;;;13.70;10.20;;;-0.90;1.00;;;;;;6327186;27;20704;-59
2021/12/26 11:33:28;;;;;;;11.40;10.20;;;-0.80;1.00;;;;;;6317090;28;20323;-56
2021/12/26 11:36:32;;;;;;;11.30;10.20;;;-0.70;1.00;;;;;;6315387;27;20282;-56
2021/12/26 11:39:37;;;;;;;10.80;9.73;;;-0.50;1.00;;;;;;6331460;27;20243;-56
2021/12/26 11:43:12;;;;;;;11.33;10.13;;;-0.60;1.00;;;;;;6330723;27;20329;-63
2021/12/26 11:46:21;;;;;;;11.03;10.03;;;-0.20;1.00;;;;;;6327312;27;20603;-55
2021/12/26 11:49:44;;;;;;;12.33;10.77;;;-0.10;1.00;;;;;;6334022;27;20429;-58
2021/12/26 11:53:02;;;;;;;10.80;9.80;;;-0.20;1.00;;;;;;6341066;27;20777;-57
2021/12/26 11:56:16;;;;;;;11.17;9.97;;;-0.10;1.00;;;;;;6332494;27;20251;-57
2021/12/26 11:59:39;;;;;;;10.27;9.27;;;-0.20;1.00;;;;;;6338405;27;20255;-58
2021/12/26 12:02:45;;;;;;;10.60;9.60;;;-0.10;1.00;;;;;;6331275;27;20232;-57
2021/12/26 12:05:50;;;;;;;10.40;9.40;;;-0.10;1.00;;;;;;6334966;27;20232;-57
2021/12/26 12:08:56;;;;;;;9.87;8.97;;;-0.30;1.00;;;;;;6330476;27;20281;-57
2021/12/26 12:12:05;;;;;;;10.93;8.77;;;-0.20;1.00;;;;;;6342886;27;20818;-55
2021/12/26 12:15:08;;;;;;;9.97;8.97;;;0.00;1.00;;;;;;6339805;27;20324;-56
2021/12/26 12:18:13;;;;;;;9.63;8.80;;;-0.20;1.00;;;;;;6334096;27;20424;-56
2021/12/26 12:21:19;;;;;;;9.30;8.47;;;-0.30;1.00;;;;;;6338119;27;20280;-57
2021/12/26 12:24:25;;;;;;;9.40;8.60;;;0.10;1.00;;;;;;6330720;28;20243;-56
2021/12/26 12:27:28;;;;;;;11.03;9.87;;;0.10;1.00;;;;;;6330297;27;20240;-56
2021/12/26 12:30:31;;;;;;;9.80;8.83;;;0.10;1.00;;;;;;6326706;27;20323;-56
2021/12/26 12:33:35;;;;;;;11.10;9.50;;;0.20;1.00;;;;;;6333095;27;20235;-56
2021/12/26 12:36:41;;;;;;;10.33;9.43;;;-0.10;1.00;;;;;;6337663;27;20247;-56
2021/12/26 12:40:09;;;;;;;10.57;9.17;;;0.00;1.00;;;;;;6339743;27;20265;-57
2021/12/26 12:43:15;;;;;;;10.43;9.33;;;0.20;1.00;;;;;;6336979;27;20313;-56
2021/12/26 12:46:17;;;;;;;10.13;8.73;;;0.10;1.00;;;;;;6334729;27;20253;-56
2021/12/26 12:49:21;;;;;;;9.37;8.67;;;0.20;1.00;;;;;;6336732;27;20384;-56
2021/12/26 12:52:44;;;;;;;9.07;8.37;;;0.20;1.00;;;;;;6332646;27;20235;-55
2021/12/26 12:55:51;;;;;;;9.93;8.97;;;0.10;1.00;;;;;;6329589;27;20788;-56
2021/12/26 12:59:16;;;;;;;9.93;9.13;;;0.20;1.00;;;;;;6328740;27;20301;-57
2021/12/26 13:02:34;;;;;;;9.07;8.40;;;0.20;1.00;;;;;;6337237;27;20750;-56
2021/12/26 13:05:37;;;;;;;9.83;8.83;;;0.20;1.00;;;;;;6305508;28;20235;-58
2021/12/26 13:08:41;;;;;;;8.93;8.13;;;0.20;1.00;;;;;;6336135;27;20236;-56
2021/12/26 13:11:44;;;;;;;10.23;8.53;;;0.10;1.00;;;;;;6332800;27;20240;-56
2021/12/26 13:14:49;;;;;;;8.10;7.50;;;0.30;1.00;;;;;;6335946;27;20711;-56
2021/12/26 13:17:52;;;;;;;8.40;7.60;;;0.00;1.00;;;;;;6333979;27;20279;-56
2021/12/26 13:20:56;;;;;;;8.00;7.50;;;0.00;1.00;;;;;;6332871;27;20235;-56
2021/12/26 13:24:01;;;;;;;8.80;8.10;;;0.00;1.00;;;;;;6334001;27;20323;-56
2021/12/26 13:27:05;;;;;;;8.27;7.57;;;-0.20;1.00;;;;;;6337483;27;20231;-56
2021/12/26 13:30:08;;;;;;;8.33;7.53;;;0.00;1.00;;;;;;6337656;27;20323;-56
2021/12/26 13:33:15;;;;;;;8.50;7.63;;;0.00;1.00;;;;;;6337145;27;20951;-57
2021/12/26 13:36:21;;;;;;;7.93;7.33;;;-0.10;1.00;;;;;;6332162;28;20235;-58
2021/12/26 13:39:26;;;;;;;9.23;8.03;;;-0.40;1.00;;;;;;6337731;27;20715;-58
2021/12/26 13:42:30;;;;;;;7.33;6.83;;;-0.40;1.00;;;;;;6334553;27;20318;-58
2021/12/26 13:45:37;;;;;;;7.77;7.17;;;-0.10;1.00;;;;;;6337797;27;20231;-57
2021/12/26 13:48:43;;;;;;;8.20;7.50;;;-0.70;1.00;;;;;;6343352;27;20250;-58
2021/12/26 13:51:54;;;;;;;8.83;7.90;;;-0.60;1.00;;;;;;6332802;27;20277;-57
2021/12/26 13:54:58;;;;;;;8.70;7.90;;;-0.60;1.00;;;;;;6332686;27;20224;-58
2021/12/26 13:58:03;;;;;;;8.57;7.67;;;-0.70;1.00;;;;;;6332086;27;20278;-56
2021/12/26 14:01:07;;;;;;;7.53;6.93;;;-0.80;1.00;;;;;;6332123;27;20414;-58
2021/12/26 14:04:11;;;;;;;7.90;6.87;;;-0.90;1.00;;;;;;6339296;27;20791;-57
2021/12/26 14:07:17;;;;;;;7.83;7.20;;;-0.70;1.00;;;;;;6337918;27;20284;-57
2021/12/26 14:10:23;;;;;;;7.70;7.20;;;-1.00;1.00;;;;;;6337470;27;20228;-61
2021/12/26 14:13:27;;;;;;;8.53;7.70;;;-0.90;1.00;;;;;;6331439;27;20237;-56
2021/12/26 14:16:31;;;;;;;7.40;6.87;;;-0.80;1.00;;;;;;6337575;27;20242;-56
2021/12/26 14:19:34;;;;;;;7.83;7.17;;;-1.00;1.00;;;;;;6336242;27;20251;-57
2021/12/26 14:22:36;;;;;;;8.10;7.27;;;-1.10;1.00;;;;;;6342107;27;20248;-56
2021/12/26 14:25:40;;;;;;;7.73;7.13;;;-1.00;1.00;;;;;;6337816;27;20232;-57
2021/12/26 14:28:45;;;;;;;8.47;7.60;;;-1.10;1.00;;;;;;6325051;27;20234;-58
2021/12/26 14:31:50;;;;;;;8.23;7.47;;;-1.20;1.00;;;;;;6339334;27;20361;-57
2021/12/26 14:34:53;;;;;;;9.20;8.30;;;-1.20;1.00;;;;;;6340582;27;20231;-57
2021/12/26 14:38:10;;;;;;;8.63;7.83;;;-1.60;1.00;;;;;;6323138;27;20247;-57
2021/12/26 14:41:14;;;;;;;10.50;8.53;;;-1.30;1.00;;;;;;6339282;27;20545;-58
2021/12/26 14:44:20;;;;;;;10.23;9.00;;;-1.60;1.00;;;;;;6325644;27;20263;-57
2021/12/26 14:47:25;;;;;;;10.80;8.47;;;-1.70;1.00;;;;;;6332746;27;20248;-58
2021/12/26 14:50:30;;;;;;;10.10;8.47;;;-1.70;1.00;;;;;;6331521;27;20382;-57
2021/12/26 14:53:33;;;;;;;9.93;8.93;;;-1.90;1.00;;;;;;6331286;27;20228;-57
2021/12/26 14:56:47;;;;;;;10.20;8.37;;;-1.70;1.00;;;;;;6333872;27;20336;-57
2021/12/26 14:59:53;;;;;;;9.70;8.87;;;-2.00;1.00;;;;;;6331672;28;20278;-57
2021/12/26 15:02:57;;;;;;;12.47;9.53;;;-2.00;1.00;;;;;;6335501;27;20232;-56
2021/12/26 15:06:11;;;;;;;13.50;11.33;;;-2.10;1.00;;;;;;6324590;27;20285;-56
2021/12/26 15:09:39;;;;;;;14.13;11.00;;;-2.10;1.00;;;;;;6347979;27;20236;-57
2021/12/26 15:12:48;;;;;;;12.30;11.00;;;-2.00;1.00;;;;;;6341647;27;20223;-57
2021/12/26 15:15:52;;;;;;;13.10;11.33;;;-2.10;1.00;;;;;;6272799;27;20367;-57
2021/12/26 15:18:57;;;;;;;13.67;11.57;;;-2.20;1.00;;;;;;6307380;28;20312;-57
2021/12/26 15:22:02;;;;;;;14.90;11.80;;;-2.40;1.00;;;;;;6297968;28;20423;-57
2021/12/26 15:25:05;;;;;;;15.83;12.00;;;-2.20;1.00;;;;;;6301147;28;20277;-60
2021/12/26 15:28:15;;;;;;;16.27;12.90;;;-2.50;1.00;;;;;;6313258;28;20575;-57
2021/12/26 15:31:20;;;;;;;15.17;12.23;;;-2.20;1.00;;;;;;6331848;27;20707;-56
2021/12/26 15:34:23;;;;;;;18.63;13.43;;;-2.50;1.00;;;;;;6336343;27;20719;-56
2021/12/26 15:37:26;;;;;;;19.47;14.00;;;-2.40;1.00;;;;;;6346502;27;20323;-57
2021/12/26 15:40:29;;;;;;;15.93;12.60;;;-2.40;1.00;;;;;;6341228;27;20255;-58
2021/12/26 15:43:33;;;;;;;16.60;12.67;;;-2.50;1.00;;;;;;6331792;27;20235;-57
2021/12/26 15:46:39;;;;;;;18.87;14.33;;;-2.40;1.00;;;;;;6342360;27;20240;-57
2021/12/26 15:49:41;;;;;;;16.70;12.87;;;-2.40;1.00;;;;;;6335984;27;20248;-58
2021/12/26 15:52:44;;;;;;;14.63;12.57;;;-2.40;1.00;;;;;;6340497;27;20257;-62